Time;durP1;ratioP1;P1;durP2;ratioP2;P2;SDS_P1;SDS_P2;PMS_P1;PMS_P2;Temp;Humidity;BMP_temperature;BMP_pressure;BME280_temperature;BME280_humidity;BME280_pressure;Samples;Min_cycle;Max_cycle;Signal;HPM_P1;HPM_P2
2023/12/10 00:02:19;;;;;;;24.02;4.03;;;;;;;7.42;100.00;99555.50;5072081;28;20499;-48
2023/12/10 00:04:48;;;;;;;26.05;4.45;;;;;;;7.43;100.00;99547.56;5072072;28;20048;-46
2023/12/10 00:07:16;;;;;;;19.35;3.67;;;;;;;7.46;100.00;99546.50;5072128;28;20056;-49
2023/12/10 00:09:44;;;;;;;24.85;4.28;;;;;;;7.49;100.00;99535.81;5072428;28;20170;-50
2023/12/10 00:12:13;;;;;;;22.55;3.65;;;;;;;7.53;100.00;99539.03;5072178;28;20043;-51
2023/12/10 00:14:41;;;;;;;23.38;4.68;;;;;;;7.51;100.00;99543.53;5072158;28;20045;-48
2023/12/10 00:17:11;;;;;;;25.67;4.05;;;;;;;7.55;100.00;99542.38;5072568;28;20048;-47
2023/12/10 00:19:41;;;;;;;25.95;4.47;;;;;;;7.61;100.00;99541.94;5071816;28;20048;-47
2023/12/10 00:22:09;;;;;;;20.08;3.50;;;;;;;7.60;100.00;99535.84;5072075;28;20563;-47
2023/12/10 00:24:37;;;;;;;25.98;4.45;;;;;;;7.57;100.00;99543.94;5071855;28;20135;-46
2023/12/10 00:27:06;;;;;;;25.88;4.35;;;;;;;7.65;100.00;99545.13;5071859;28;20056;-48
2023/12/10 00:29:34;;;;;;;28.65;4.38;;;;;;;7.63;100.00;99552.28;5071905;28;20075;-46
2023/12/10 00:32:02;;;;;;;21.40;4.13;;;;;;;7.64;100.00;99562.63;5071413;28;20101;-46
2023/12/10 00:34:30;;;;;;;26.08;4.97;;;;;;;7.66;100.00;99557.28;5068764;28;20048;-46
2023/12/10 00:37:00;;;;;;;21.63;3.85;;;;;;;7.63;100.00;99567.97;5067703;28;20045;-46
2023/12/10 00:39:28;;;;;;;35.72;5.53;;;;;;;7.59;100.00;99565.59;5068769;28;20492;-45
2023/12/10 00:41:57;;;;;;;25.15;4.47;;;;;;;7.58;100.00;99577.00;5069620;28;20040;-49
2023/12/10 00:44:28;;;;;;;21.23;3.90;;;;;;;7.55;100.00;99571.16;5070853;28;20040;-48
2023/12/10 00:46:56;;;;;;;28.23;3.92;;;;;;;7.49;100.00;99575.03;5070524;28;20055;-47
2023/12/10 00:49:24;;;;;;;27.50;4.25;;;;;;;7.49;100.00;99572.44;5070259;28;20040;-46
2023/12/10 00:51:52;;;;;;;22.70;3.97;;;;;;;7.49;100.00;99574.22;5067678;28;20098;-47
2023/12/10 00:54:22;;;;;;;29.63;4.43;;;;;;;7.43;100.00;99578.94;5070169;28;20530;-47
2023/12/10 00:56:50;;;;;;;28.25;3.65;;;;;;;7.46;100.00;99590.97;5071585;28;20423;-48
2023/12/10 00:59:18;;;;;;;26.30;4.35;;;;;;;7.44;100.00;99587.63;5071822;28;20045;-46
2023/12/10 01:01:47;;;;;;;23.48;3.70;;;;;;;7.40;100.00;99596.63;5071405;28;20106;-46
2023/12/10 01:04:15;;;;;;;23.58;3.95;;;;;;;7.36;100.00;99589.94;5072309;28;20442;-47
2023/12/10 01:06:43;;;;;;;32.10;5.22;;;;;;;7.32;100.00;99594.59;5074352;28;20044;-48
2023/12/10 01:09:15;;;;;;;29.80;5.63;;;;;;;7.35;100.00;99603.97;5075576;28;20495;-47
2023/12/10 01:11:45;;;;;;;26.45;4.57;;;;;;;7.30;100.00;99600.88;5074952;28;20048;-48
2023/12/10 01:14:13;;;;;;;34.53;5.70;;;;;;;7.27;100.00;99600.13;5071684;28;20049;-46
2023/12/10 01:16:41;;;;;;;28.05;4.55;;;;;;;7.27;100.00;99596.69;5071900;28;20090;-48
2023/12/10 01:19:09;;;;;;;26.00;4.70;;;;;;;7.24;100.00;99608.19;5072278;28;20068;-47
2023/12/10 01:21:38;;;;;;;25.77;4.28;;;;;;;7.19;100.00;99607.69;5074230;28;20052;-47
2023/12/10 01:24:07;;;;;;;24.10;4.43;;;;;;;7.18;100.00;99611.22;5075189;28;20044;-50
2023/12/10 01:26:36;;;;;;;25.50;4.13;;;;;;;7.18;100.00;99605.19;5075230;28;20098;-48
2023/12/10 01:29:05;;;;;;;25.02;3.58;;;;;;;7.19;100.00;99605.06;5073803;28;20044;-51
2023/12/10 01:31:35;;;;;;;24.63;4.32;;;;;;;7.18;100.00;99607.78;5075064;28;20105;-47
2023/12/10 01:34:04;;;;;;;22.90;3.47;;;;;;;7.17;100.00;99603.50;5074898;28;20048;-48
2023/12/10 01:36:33;;;;;;;19.83;3.75;;;;;;;7.14;100.00;99612.38;5071101;28;20131;-50
2023/12/10 01:39:03;;;;;;;21.80;3.70;;;;;;;7.15;100.00;99610.63;5071596;28;20086;-49
2023/12/10 01:41:31;;;;;;;25.83;4.35;;;;;;;7.11;100.00;99615.22;5074891;28;20044;-50
2023/12/10 01:43:59;;;;;;;29.27;3.45;;;;;;;7.09;100.00;99619.75;5074728;28;20045;-50
2023/12/10 01:46:29;;;;;;;21.85;3.67;;;;;;;7.07;100.00;99617.22;5074643;28;20523;-47
2023/12/10 01:48:58;;;;;;;20.73;3.53;;;;;;;7.09;100.00;99632.81;5074913;28;20048;-47
2023/12/10 01:51:27;;;;;;;22.75;3.85;;;;;;;7.10;100.00;99631.84;5074803;28;20547;-47
2023/12/10 01:53:58;;;;;;;16.30;3.78;;;;;;;7.13;100.00;99625.56;5074504;28;20049;-45
2023/12/10 01:56:32;;;;;;;19.90;3.13;;;;;;;7.11;100.00;99636.16;5074516;28;20056;-47
2023/12/10 01:59:00;;;;;;;21.38;3.53;;;;;;;7.09;100.00;99628.41;5074587;28;20483;-46
2023/12/10 02:01:30;;;;;;;18.02;3.03;;;;;;;7.09;100.00;99622.34;5074464;28;20583;-47
2023/12/10 02:03:58;;;;;;;24.98;3.38;;;;;;;7.08;100.00;99629.34;5073181;28;20152;-47
2023/12/10 02:06:27;;;;;;;20.70;3.33;;;;;;;7.07;100.00;99632.06;5072701;28;20535;-47
2023/12/10 02:08:55;;;;;;;19.20;3.00;;;;;;;7.02;100.00;99629.78;5073917;28;20051;-47
2023/12/10 02:11:24;;;;;;;23.88;3.17;;;;;;;7.00;100.00;99631.66;5073173;28;20040;-47
2023/12/10 02:13:52;;;;;;;22.70;3.50;;;;;;;6.99;100.00;99629.97;5074179;28;20047;-48
2023/12/10 02:16:20;;;;;;;21.55;3.13;;;;;;;7.02;100.00;99631.56;5073341;28;20053;-49
2023/12/10 02:18:49;;;;;;;25.10;3.10;;;;;;;6.98;100.00;99625.72;5074412;28;20399;-48
2023/12/10 02:21:19;;;;;;;21.55;3.50;;;;;;;6.97;100.00;99641.47;5073047;28;20080;-48
2023/12/10 02:23:55;;;;;;;25.77;3.47;;;;;;;6.92;100.00;99639.19;5074061;28;20573;-51
2023/12/10 02:26:25;;;;;;;20.60;3.45;;;;;;;6.89;100.00;99626.34;5074167;28;20575;-45
2023/12/10 02:28:54;;;;;;;22.80;3.65;;;;;;;6.90;100.00;99641.09;5073984;28;20557;-47
2023/12/10 02:31:24;;;;;;;16.38;3.42;;;;;;;6.90;100.00;99651.56;5072962;28;20090;-49
2023/12/10 02:33:52;;;;;;;16.88;3.28;;;;;;;6.92;100.00;99639.19;5070788;28;20063;-49
2023/12/10 02:36:21;;;;;;;20.63;3.42;;;;;;;6.94;100.00;99640.78;5072901;28;20519;-46
2023/12/10 02:38:50;;;;;;;19.73;3.58;;;;;;;6.91;100.00;99664.50;5071630;28;20635;-46
2023/12/10 02:41:18;;;;;;;14.75;3.50;;;;;;;6.89;100.00;99652.50;5069676;28;20372;-50
2023/12/10 02:43:47;;;;;;;27.50;3.70;;;;;;;6.89;100.00;99655.94;5072342;28;20056;-47
2023/12/10 02:46:16;;;;;;;21.25;3.40;;;;;;;6.86;100.00;99665.78;5073757;28;20067;-47
2023/12/10 02:48:44;;;;;;;21.13;3.38;;;;;;;6.84;100.00;99671.09;5073648;28;20044;-48
2023/12/10 02:51:12;;;;;;;22.20;4.28;;;;;;;6.83;100.00;99668.56;5073753;28;20365;-46
2023/12/10 02:53:41;;;;;;;23.83;3.72;;;;;;;6.82;100.00;99685.22;5073490;28;20506;-46
2023/12/10 02:56:10;;;;;;;23.98;3.92;;;;;;;6.86;100.00;99669.22;5073721;28;20060;-46
2023/12/10 02:58:38;;;;;;;21.00;3.70;;;;;;;6.81;100.00;99679.13;5073458;28;20098;-46
2023/12/10 03:01:10;;;;;;;24.45;3.20;;;;;;;6.82;100.00;99674.75;5073438;28;20060;-48
2023/12/10 03:03:38;;;;;;;21.20;3.13;;;;;;;6.80;100.00;99682.69;5073351;28;20457;-48
2023/12/10 03:06:07;;;;;;;24.83;2.97;;;;;;;6.77;100.00;99682.91;5073306;28;20056;-50
2023/12/10 03:08:36;;;;;;;21.80;3.13;;;;;;;6.72;100.00;99678.00;5072933;28;20037;-45
2023/12/10 03:11:07;;;;;;;23.02;3.88;;;;;;;6.72;100.00;99677.13;5069098;28;20408;-50
2023/12/10 03:13:35;;;;;;;15.52;4.00;;;;;;;6.72;100.00;99677.13;5070976;28;20040;-48
2023/12/10 03:16:04;;;;;;;21.80;3.10;;;;;;;6.69;100.00;99683.41;5073314;28;20044;-50
2023/12/10 03:18:34;;;;;;;23.48;3.42;;;;;;;6.72;100.00;99687.59;5073203;28;20086;-50
2023/12/10 03:21:06;;;;;;;23.20;3.42;;;;;;;6.67;100.00;99687.91;5071729;28;20101;-49
2023/12/10 03:23:34;;;;;;;16.83;2.80;;;;;;;6.67;100.00;99690.53;5072857;28;20041;-48
2023/12/10 03:26:02;;;;;;;23.10;3.10;;;;;;;6.70;100.00;99700.75;5072816;28;20041;-47
2023/12/10 03:28:30;;;;;;;21.08;4.35;;;;;;;6.70;100.00;99692.94;5072688;28;20036;-45
2023/12/10 03:31:00;;;;;;;25.80;4.00;;;;;;;6.74;100.00;99690.97;5072632;28;20124;-46
2023/12/10 03:33:28;;;;;;;21.35;3.38;;;;;;;6.70;100.00;99698.16;5072594;28;20044;-47
2023/12/10 03:36:00;;;;;;;25.38;3.42;;;;;;;6.65;100.00;99695.00;5071506;28;20047;-46
2023/12/10 03:38:30;;;;;;;25.27;3.88;;;;;;;6.65;100.00;99702.03;5072714;28;20446;-45
2023/12/10 03:40:58;;;;;;;23.10;4.05;;;;;;;6.69;100.00;99698.25;5072928;28;20135;-47
2023/12/10 03:43:26;;;;;;;24.15;3.42;;;;;;;6.66;100.00;99701.09;5072822;28;20067;-47
2023/12/10 03:45:57;;;;;;;28.15;3.78;;;;;;;6.70;100.00;99703.38;5071788;28;20048;-45
2023/12/10 03:48:25;;;;;;;25.15;4.65;;;;;;;6.68;100.00;99707.88;5072175;28;20052;-48
2023/12/10 03:50:54;;;;;;;24.65;4.07;;;;;;;6.68;100.00;99707.88;5072334;28;20098;-46
2023/12/10 03:53:23;;;;;;;30.67;4.07;;;;;;;6.70;100.00;99705.16;5072220;28;20083;-44
2023/12/10 03:55:52;;;;;;;25.83;4.03;;;;;;;6.75;100.00;99697.88;5072372;28;20079;-46
2023/12/10 03:58:20;;;;;;;21.58;3.85;;;;;;;6.75;100.00;99710.94;5072192;28;20045;-48
2023/12/10 04:00:49;;;;;;;18.88;4.22;;;;;;;6.71;100.00;99710.28;5072244;28;20126;-47
2023/12/10 04:03:17;;;;;;;24.48;4.30;;;;;;;6.74;100.00;99710.06;5072150;28;20419;-46
2023/12/10 04:05:48;;;;;;;27.40;5.07;;;;;;;6.72;100.00;99719.81;5072214;28;20041;-46
2023/12/10 04:08:16;;;;;;;22.38;3.70;;;;;;;6.77;100.00;99727.31;5072141;28;20044;-46
2023/12/10 04:10:46;;;;;;;24.00;3.72;;;;;;;6.79;100.00;99728.06;5070709;28;20502;-45
2023/12/10 04:13:15;;;;;;;21.08;3.70;;;;;;;6.78;100.00;99721.16;5071883;28;20048;-46
2023/12/10 04:15:45;;;;;;;29.58;3.63;;;;;;;6.77;100.00;99736.00;5071777;28;20044;-46
2023/12/10 04:18:14;;;;;;;22.17;4.30;;;;;;;6.77;100.00;99720.31;5071991;28;20056;-46
2023/12/10 04:20:43;;;;;;;27.70;4.00;;;;;;;6.75;100.00;99737.88;5070601;28;20044;-46
2023/12/10 04:23:11;;;;;;;20.90;3.40;;;;;;;6.74;100.00;99730.16;5071823;28;20055;-47
2023/12/10 04:25:39;;;;;;;24.45;4.22;;;;;;;6.76;100.00;99750.03;5071683;28;20293;-48
2023/12/10 04:28:09;;;;;;;26.50;3.70;;;;;;;6.74;100.00;99751.88;5071864;28;20430;-49
2023/12/10 04:30:37;;;;;;;25.48;4.20;;;;;;;6.79;100.00;99750.75;5070624;28;20036;-49
2023/12/10 04:33:06;;;;;;;31.48;4.20;;;;;;;6.79;100.00;99745.50;5071651;28;20041;-49
2023/12/10 04:35:34;;;;;;;21.80;3.40;;;;;;;6.79;100.00;99742.91;5071759;28;20037;-47
2023/12/10 04:38:02;;;;;;;22.83;3.50;;;;;;;6.82;100.00;99764.44;5071157;28;20084;-47
2023/12/10 04:40:30;;;;;;;31.38;4.38;;;;;;;6.82;100.00;99764.44;5072180;28;20044;-46
2023/12/10 04:42:59;;;;;;;25.00;4.35;;;;;;;6.77;100.00;99762.13;5071819;28;20080;-50
2023/12/10 04:45:28;;;;;;;29.83;4.55;;;;;;;6.82;100.00;99763.63;5071607;28;20054;-49
2023/12/10 04:47:57;;;;;;;19.83;3.88;;;;;;;6.83;100.00;99760.06;5072029;28;20044;-55
2023/12/10 04:50:25;;;;;;;21.33;4.35;;;;;;;6.83;100.00;99773.13;5071762;28;20049;-56
2023/12/10 04:52:53;;;;;;;20.73;4.35;;;;;;;6.81;100.00;99772.41;5071753;28;20094;-55
2023/12/10 04:55:21;;;;;;;31.10;3.50;;;;;;;6.86;100.00;99778.16;5071588;28;20407;-56
2023/12/10 04:57:50;;;;;;;27.33;3.78;;;;;;;6.84;100.00;99766.97;5071733;28;20396;-55
2023/12/10 05:00:18;;;;;;;26.95;3.97;;;;;;;6.83;100.00;99773.13;5071700;28;20068;-56
2023/12/10 05:02:48;;;;;;;19.83;4.25;;;;;;;6.84;100.00;99787.88;5071822;28;20057;-55
2023/12/10 05:05:17;;;;;;;25.15;3.75;;;;;;;6.86;100.00;99783.38;5070912;28;20060;-55
2023/12/10 05:07:46;;;;;;;21.25;4.00;;;;;;;6.89;100.00;99794.47;5068645;28;20579;-55
2023/12/10 05:10:14;;;;;;;29.67;4.80;;;;;;;6.88;100.00;99787.53;5069965;28;20127;-56
2023/12/10 05:12:42;;;;;;;23.08;3.20;;;;;;;6.90;100.00;99788.28;5071221;28;20045;-55
2023/12/10 05:15:11;;;;;;;16.60;3.33;;;;;;;6.91;100.00;99786.50;5069807;28;20076;-48
2023/12/10 05:17:39;;;;;;;23.95;3.42;;;;;;;6.87;100.00;99791.13;5070802;28;20059;-45
2023/12/10 05:20:10;;;;;;;22.33;3.97;;;;;;;6.90;100.00;99803.16;5069746;28;20144;-45
2023/12/10 05:22:40;;;;;;;24.30;4.43;;;;;;;6.90;100.00;99809.22;5071055;28;20098;-46
2023/12/10 05:25:10;;;;;;;23.55;3.38;;;;;;;6.88;100.00;99805.84;5071219;28;20143;-46
2023/12/10 05:27:39;;;;;;;24.48;3.85;;;;;;;6.91;100.00;99810.88;5071169;28;20045;-47
2023/12/10 05:30:08;;;;;;;17.58;3.08;;;;;;;6.87;100.00;99812.03;5071432;28;20050;-45
2023/12/10 05:32:36;;;;;;;23.02;3.13;;;;;;;6.90;100.00;99818.84;5071343;28;20748;-46
2023/12/10 05:35:05;;;;;;;18.63;3.30;;;;;;;6.91;100.00;99821.34;5071179;28;20355;-46
2023/12/10 05:37:37;;;;;;;20.10;3.22;;;;;;;6.92;100.00;99816.94;5071548;28;20360;-45
2023/12/10 05:40:06;;;;;;;20.52;3.30;;;;;;;6.96;100.00;99833.28;5071067;28;20419;-47
2023/12/10 05:42:35;;;;;;;20.50;3.35;;;;;;;6.96;100.00;99838.50;5071242;28;20106;-46
2023/12/10 05:45:07;;;;;;;17.90;3.55;;;;;;;6.98;100.00;99847.06;5070797;28;20037;-46
2023/12/10 05:47:35;;;;;;;19.75;3.67;;;;;;;6.96;100.00;99841.94;5071213;28;20512;-46
2023/12/10 05:50:07;;;;;;;26.70;4.10;;;;;;;6.97;100.00;99842.78;5069892;28;20128;-47
2023/12/10 05:52:36;;;;;;;21.08;3.45;;;;;;;6.94;100.00;99849.88;5074822;28;20087;-56
2023/12/10 05:55:06;;;;;;;21.83;2.92;;;;;;;6.97;100.00;99858.47;5074729;28;20049;-55
2023/12/10 05:57:34;;;;;;;22.33;3.55;;;;;;;7.02;100.00;99859.00;5074822;28;20411;-56
2023/12/10 06:00:03;;;;;;;25.02;3.35;;;;;;;7.02;100.00;99856.38;5073926;28;20440;-57
2023/12/10 06:02:32;;;;;;;20.77;3.38;;;;;;;7.02;100.00;99875.53;5071555;28;20052;-55
2023/12/10 06:05:00;;;;;;;20.77;3.55;;;;;;;7.05;100.00;99891.03;5073563;28;20044;-56
2023/12/10 06:07:29;;;;;;;23.08;3.40;;;;;;;7.06;100.00;99891.84;5074621;28;20405;-46
2023/12/10 06:10:01;;;;;;;24.67;3.70;;;;;;;7.07;100.00;99893.53;5070710;28;20480;-46
2023/12/10 06:12:29;;;;;;;22.13;3.70;;;;;;;7.05;100.00;99911.94;5069799;28;20048;-49
2023/12/10 06:14:58;;;;;;;24.70;3.90;;;;;;;7.08;100.00;99905.66;5070321;28;20044;-47
2023/12/10 06:17:26;;;;;;;19.30;3.03;;;;;;;7.11;100.00;99903.66;5072820;28;20052;-47
2023/12/10 06:19:54;;;;;;;24.38;4.57;;;;;;;7.13;100.00;99927.13;5074227;28;20051;-48
2023/12/10 06:22:24;;;;;;;19.17;3.28;;;;;;;7.16;100.00;99937.38;5074262;28;20424;-47
2023/12/10 06:24:56;;;;;;;24.15;3.88;;;;;;;7.17;100.00;99957.38;5073201;28;20423;-46
2023/12/10 06:27:25;;;;;;;26.42;3.83;;;;;;;7.21;100.00;99950.16;5069813;28;20048;-48
2023/12/10 06:29:54;;;;;;;25.77;3.45;;;;;;;7.20;100.00;99957.16;5072474;28;20040;-55
2023/12/10 06:32:23;;;;;;;22.88;4.90;;;;;;;7.27;100.00;99950.59;5074344;28;20454;-56
2023/12/10 06:34:51;;;;;;;21.13;3.97;;;;;;;7.26;100.00;99961.16;5074263;28;20376;-57
2023/12/10 06:37:20;;;;;;;20.63;3.67;;;;;;;7.19;100.00;99967.72;5074131;28;20487;-56
2023/12/10 06:39:49;;;;;;;22.23;3.05;;;;;;;7.15;100.00;99971.47;5074618;28;20045;-55
2023/12/10 06:42:20;;;;;;;22.38;3.45;;;;;;;7.17;100.00;99978.28;5070500;28;20111;-55
2023/12/10 06:44:51;;;;;;;21.50;3.25;;;;;;;7.16;100.00;99986.22;5069343;28;20495;-55
2023/12/10 06:47:20;;;;;;;21.08;3.13;;;;;;;7.15;100.00;99984.56;5073260;28;20091;-55
2023/12/10 06:49:48;;;;;;;22.23;3.40;;;;;;;7.14;100.00;100003.78;5073970;28;20058;-55
2023/12/10 06:52:17;;;;;;;24.40;4.22;;;;;;;7.12;100.00;100003.91;5073661;28;20110;-55
2023/12/10 06:54:45;;;;;;;21.65;3.28;;;;;;;7.16;100.00;100023.69;5072306;28;20135;-54
2023/12/10 06:57:14;;;;;;;20.35;2.88;;;;;;;7.21;100.00;100015.53;5073805;28;20049;-55
2023/12/10 06:59:42;;;;;;;16.65;2.88;;;;;;;7.23;100.00;100019.72;5073764;28;20072;-56
2023/12/10 07:02:12;;;;;;;17.55;4.13;;;;;;;7.19;100.00;100020.88;5073095;28;20353;-56
2023/12/10 07:04:40;;;;;;;22.42;3.65;;;;;;;7.23;100.00;100027.56;5073448;28;20514;-55
2023/12/10 07:07:09;;;;;;;22.88;2.85;;;;;;;7.24;100.00;100039.72;5073412;28;20105;-56
2023/12/10 07:09:37;;;;;;;22.58;3.83;;;;;;;7.28;100.00;100037.75;5073466;28;20106;-56
2023/12/10 07:12:06;;;;;;;23.45;3.30;;;;;;;7.27;100.00;100049.97;5073264;28;20094;-55
2023/12/10 07:14:34;;;;;;;21.80;3.75;;;;;;;7.28;100.00;100049.06;5073283;28;20056;-57
2023/12/10 07:17:03;;;;;;;20.38;3.22;;;;;;;7.33;100.00;100043.50;5073183;28;20040;-56
2023/12/10 07:19:32;;;;;;;20.48;3.63;;;;;;;7.28;100.00;100043.81;5072997;28;20085;-55
2023/12/10 07:22:01;;;;;;;24.30;3.72;;;;;;;7.33;100.00;100061.00;5070582;28;20139;-54
2023/12/10 07:24:30;;;;;;;21.92;3.72;;;;;;;7.32;100.00;100057.56;5069758;28;20051;-57
2023/12/10 07:26:58;;;;;;;22.27;4.07;;;;;;;7.34;100.00;100079.19;5068542;28;20053;-56
2023/12/10 07:29:26;;;;;;;25.60;3.58;;;;;;;7.39;100.00;100068.44;5070220;28;20140;-55
2023/12/10 07:31:54;;;;;;;27.38;3.92;;;;;;;7.37;100.00;100079.00;5072803;28;20052;-55
2023/12/10 07:34:22;;;;;;;20.75;3.35;;;;;;;7.36;100.00;100085.19;5071149;28;20068;-55
2023/12/10 07:36:52;;;;;;;27.08;3.65;;;;;;;7.38;100.00;100085.09;5067551;28;20033;-54
2023/12/10 07:39:20;;;;;;;20.33;3.08;;;;;;;7.38;100.00;100092.94;5072486;28;20337;-56
2023/12/10 07:41:48;;;;;;;21.15;4.05;;;;;;;7.39;100.00;100107.69;5072700;28;20107;-55
2023/12/10 07:44:17;;;;;;;23.90;3.47;;;;;;;7.36;100.00;100102.66;5072834;28;20391;-57
2023/12/10 07:46:48;;;;;;;25.42;4.07;;;;;;;7.40;100.00;100110.22;5072453;28;20052;-55
2023/12/10 07:49:17;;;;;;;19.17;3.63;;;;;;;7.35;100.00;100104.44;5072647;28;20102;-55
2023/12/10 07:51:45;;;;;;;17.48;3.58;;;;;;;7.42;100.00;100099.66;5072455;28;20044;-55
2023/12/10 07:54:15;;;;;;;20.10;2.85;;;;;;;7.46;100.00;100116.84;5072658;28;20403;-56
2023/12/10 07:56:43;;;;;;;22.90;3.60;;;;;;;7.38;100.00;100130.38;5072402;28;20119;-56
2023/12/10 07:59:14;;;;;;;22.25;3.70;;;;;;;7.43;100.00;100151.88;5070521;28;20574;-56
2023/12/10 08:01:42;;;;;;;21.05;4.47;;;;;;;7.42;100.00;100152.81;5068640;28;20407;-56
2023/12/10 08:04:10;;;;;;;25.55;3.72;;;;;;;7.37;100.00;100161.88;5071433;28;20495;-55
2023/12/10 08:06:41;;;;;;;19.83;2.92;;;;;;;7.41;100.00;100169.44;5071951;28;20047;-55
2023/12/10 08:09:10;;;;;;;23.80;3.90;;;;;;;7.43;100.00;100166.72;5070864;28;20066;-54
2023/12/10 08:11:39;;;;;;;26.25;3.38;;;;;;;7.39;100.00;100173.06;5067748;28;20110;-56
2023/12/10 08:14:09;;;;;;;19.45;2.97;;;;;;;7.42;100.00;100188.59;5069364;28;20504;-55
2023/12/10 08:16:37;;;;;;;23.40;2.80;;;;;;;7.45;100.00;100180.56;5071689;28;20052;-56
2023/12/10 08:19:06;;;;;;;20.95;3.80;;;;;;;7.46;100.00;100184.88;5071706;28;20087;-55
2023/12/10 08:21:34;;;;;;;16.60;3.25;;;;;;;7.44;100.00;100200.66;5068346;28;20054;-54
2023/12/10 08:24:02;;;;;;;21.75;3.58;;;;;;;7.45;100.00;100197.09;5068627;28;20404;-55
2023/12/10 08:26:30;;;;;;;19.33;3.58;;;;;;;7.45;100.00;100197.09;5069643;28;20046;-56
2023/12/10 08:29:00;;;;;;;20.88;3.60;;;;;;;7.42;100.00;100197.28;5070585;28;20628;-55
2023/12/10 08:31:28;;;;;;;17.90;2.70;;;;;;;7.47;100.00;100204.84;5068944;28;20487;-54
2023/12/10 08:33:57;;;;;;;17.80;3.03;;;;;;;7.46;100.00;100208.41;5069153;28;20051;-56
2023/12/10 08:36:25;;;;;;;20.55;3.22;;;;;;;7.45;100.00;100210.16;5069949;28;20055;-54
2023/12/10 08:38:53;;;;;;;19.10;3.15;;;;;;;7.47;100.00;100204.00;5068559;28;20388;-55
2023/12/10 08:41:22;;;;;;;23.67;3.40;;;;;;;7.45;100.00;100219.81;5069051;28;20052;-57
2023/12/10 08:43:50;;;;;;;21.38;4.10;;;;;;;7.45;100.00;100207.53;5071679;28;20044;-55
2023/12/10 08:46:19;;;;;;;19.27;3.95;;;;;;;7.48;100.00;100209.13;5071553;28;20403;-56
2023/12/10 08:48:47;;;;;;;14.75;2.55;;;;;;;7.48;100.00;100224.84;5070449;28;20041;-54
2023/12/10 08:51:16;;;;;;;16.90;3.08;;;;;;;7.47;100.00;100236.22;5067535;28;20055;-55
2023/12/10 08:53:44;;;;;;;23.15;3.50;;;;;;;7.49;100.00;100239.59;5068583;28;20049;-55
2023/12/10 08:56:12;;;;;;;16.77;3.05;;;;;;;7.50;100.00;100246.53;5067952;28;20495;-55
2023/12/10 08:58:41;;;;;;;17.13;3.00;;;;;;;7.50;100.00;100259.63;5070570;28;20044;-54
2023/12/10 09:01:11;;;;;;;15.48;2.95;;;;;;;7.52;100.00;100255.13;5068498;28;20499;-57
2023/12/10 09:03:42;;;;;;;22.02;3.55;;;;;;;7.55;100.00;100243.63;5068586;28;20067;-56
2023/12/10 09:06:11;;;;;;;19.05;2.47;;;;;;;7.54;100.00;100257.63;5067651;28;20406;-55
2023/12/10 09:08:39;;;;;;;24.17;3.03;;;;;;;7.52;100.00;100262.97;5070728;28;20127;-56
2023/12/10 09:11:07;;;;;;;21.75;3.13;;;;;;;7.53;100.00;100274.28;5071846;28;20110;-55
2023/12/10 09:13:36;;;;;;;21.05;3.80;;;;;;;7.54;100.00;100286.41;5070968;28;20423;-54
2023/12/10 09:16:06;;;;;;;20.55;2.80;;;;;;;7.54;100.00;100287.28;5067944;28;20399;-54
2023/12/10 09:18:33;;;;;;;20.50;3.58;;;;;;;7.53;100.00;100298.66;5067771;28;20098;-54
2023/12/10 09:21:07;;;;;;;20.20;3.22;;;;;;;7.55;100.00;100293.34;5070085;28;20045;-56
2023/12/10 09:23:35;;;;;;;23.25;3.50;;;;;;;7.59;100.00;100306.16;5071323;28;20052;-55
2023/12/10 09:26:04;;;;;;;16.08;3.00;;;;;;;7.57;100.00;100305.41;5074555;28;20508;-55
2023/12/10 09:28:35;;;;;;;22.85;3.05;;;;;;;7.60;100.00;100310.44;5075328;28;20051;-54
2023/12/10 09:31:04;;;;;;;24.42;4.22;;;;;;;7.60;100.00;100305.19;5075122;28;20087;-56
2023/12/10 09:33:32;;;;;;;19.15;2.97;;;;;;;7.63;100.00;100319.88;5073916;28;20075;-54
2023/12/10 09:36:00;;;;;;;23.70;3.55;;;;;;;7.68;100.00;100328.28;5074990;28;20097;-57
2023/12/10 09:38:30;;;;;;;20.33;3.65;;;;;;;7.67;100.00;100321.38;5073602;28;20049;-56
2023/12/10 09:40:59;;;;;;;19.33;2.72;;;;;;;7.69;100.00;100323.88;5074959;28;20079;-56
2023/12/10 09:43:27;;;;;;;16.50;3.42;;;;;;;7.70;100.00;100331.69;5075032;28;20095;-56
2023/12/10 09:45:55;;;;;;;14.50;3.03;;;;;;;7.71;100.00;100337.75;5074735;28;20781;-55
2023/12/10 09:48:24;;;;;;;19.95;3.60;;;;;;;7.73;100.00;100338.47;5074325;28;20040;-55
2023/12/10 09:50:53;;;;;;;16.27;3.50;;;;;;;7.74;100.00;100337.53;5074339;28;20503;-54
2023/12/10 09:53:22;;;;;;;17.23;3.42;;;;;;;7.78;100.00;100339.03;5074748;28;20044;-55
2023/12/10 09:55:51;;;;;;;14.38;3.20;;;;;;;7.79;100.00;100340.72;5074507;28;20056;-55
2023/12/10 09:58:20;;;;;;;18.33;2.97;;;;;;;7.81;100.00;100338.84;5070738;28;20037;-55
2023/12/10 10:00:48;;;;;;;23.40;3.65;;;;;;;7.80;100.00;100342.41;5070976;28;20078;-55
2023/12/10 10:03:18;;;;;;;17.35;2.75;;;;;;;7.80;100.00;100337.19;5073802;28;20080;-55
2023/12/10 10:05:45;;;;;;;19.73;3.08;;;;;;;7.80;100.00;100342.41;5071294;28;20155;-56
2023/12/10 10:08:15;;;;;;;20.20;2.95;;;;;;;7.81;100.00;100345.88;5072177;28;20105;-55
2023/12/10 10:10:43;;;;;;;17.02;2.92;;;;;;;7.86;100.00;100347.25;5073077;28;20796;-54
2023/12/10 10:13:13;;;;;;;16.00;2.42;;;;;;;7.84;100.00;100343.91;5071620;28;20052;-57
2023/12/10 10:15:42;;;;;;;16.05;3.03;;;;;;;7.86;100.00;100346.44;5071250;28;20053;-55
2023/12/10 10:18:14;;;;;;;14.60;2.63;;;;;;;7.88;100.00;100360.25;5072957;28;20049;-55
2023/12/10 10:20:43;;;;;;;27.38;4.35;;;;;;;7.92;100.00;100366.97;5074143;28;20051;-54
2023/12/10 10:23:11;;;;;;;19.85;3.20;;;;;;;7.93;100.00;100363.44;5074346;28;20051;-55
2023/12/10 10:25:40;;;;;;;17.88;3.38;;;;;;;7.90;100.00;100359.22;5071234;28;20044;-55
2023/12/10 10:28:09;;;;;;;25.00;3.30;;;;;;;7.90;100.00;100358.41;5069344;28;20059;-49
2023/12/10 10:30:39;;;;;;;19.48;3.55;;;;;;;7.91;100.00;100363.53;5074108;28;20052;-55
2023/12/10 10:33:09;;;;;;;14.68;2.80;;;;;;;7.90;100.00;100364.47;5074207;28;20086;-48
2023/12/10 10:35:40;;;;;;;21.38;3.05;;;;;;;7.95;100.00;100367.66;5072192;28;20399;-46
2023/12/10 10:38:09;;;;;;;19.95;3.00;;;;;;;7.94;100.00;100365.97;5068385;28;20072;-49
2023/12/10 10:40:37;;;;;;;20.92;3.65;;;;;;;7.95;100.00;100370.25;5073931;28;20563;-55
2023/12/10 10:43:05;;;;;;;16.75;2.88;;;;;;;7.99;100.00;100368.31;5073905;28;20403;-56
2023/12/10 10:45:34;;;;;;;19.88;3.30;;;;;;;8.02;100.00;100356.81;5073742;28;20131;-46
2023/12/10 10:48:07;;;;;;;22.42;3.72;;;;;;;8.05;100.00;100359.22;5073713;28;20044;-48
2023/12/10 10:50:39;;;;;;;19.58;3.42;;;;;;;8.04;100.00;100355.75;5072547;28;20048;-46
2023/12/10 10:53:08;;;;;;;22.58;3.03;;;;;;;8.10;100.00;100352.75;5073573;28;20048;-46
2023/12/10 10:55:37;;;;;;;21.80;3.47;;;;;;;8.10;100.00;100365.03;5070295;28;20040;-47
2023/12/10 10:58:23;;;;;;;17.15;3.05;;;;;;;8.15;100.00;100352.47;5069458;28;20056;-48
2023/12/10 11:00:52;;;;;;;21.73;3.03;;;;;;;8.15;100.00;100357.69;5072789;28;20057;-48
2023/12/10 11:03:21;;;;;;;19.88;3.33;;;;;;;8.22;100.00;100359.00;5072247;28;20051;-46
2023/12/10 11:05:50;;;;;;;19.75;3.47;;;;;;;8.26;100.00;100364.88;5070023;28;20037;-56
2023/12/10 11:08:19;;;;;;;21.40;2.88;;;;;;;8.30;100.00;100366.38;5069632;28;20110;-56
2023/12/10 11:10:56;;;;;;;18.35;2.97;;;;;;;8.32;100.00;100368.88;5071464;28;20048;-56
2023/12/10 11:13:43;;;;;;;19.08;3.05;;;;;;;8.40;100.00;100359.63;5073190;28;20154;-56
2023/12/10 11:16:11;;;;;;;20.63;3.60;;;;;;;8.46;100.00;100350.56;5073208;28;20060;-55
2023/12/10 11:18:58;;;;;;;19.60;3.20;;;;;;;8.57;100.00;100347.25;5071915;28;20048;-57
2023/12/10 11:21:26;;;;;;;18.23;3.13;;;;;;;8.59;100.00;100346.22;5072083;28;20059;-55
2023/12/10 11:23:55;;;;;;;21.02;3.35;;;;;;;8.64;100.00;100338.03;5073214;28;20522;-55
2023/12/10 11:26:23;;;;;;;23.50;3.20;;;;;;;8.63;100.00;100337.22;5073206;28;20125;-58
2023/12/10 11:28:52;;;;;;;27.52;3.42;;;;;;;8.66;100.00;100333.56;5071688;28;20044;-56
2023/12/10 11:31:20;;;;;;;21.35;4.28;;;;;;;8.67;100.00;100335.25;5073136;28;20515;-56